sensor_id;sensor_type;location;lat;lon;timestamp;P1;durP1;ratioP1;P2;durP2;ratioP2
64291;SDS011;50628;51.008;13.658;2023-02-26T00:01:44;1.97;;;0.90;;
64291;SDS011;50628;51.008;13.658;2023-02-26T00:06:47;3.47;;;0.90;;
64291;SDS011;50628;51.008;13.658;2023-02-26T00:11:52;2.03;;;0.80;;
64291;SDS011;50628;51.008;13.658;2023-02-26T00:16:58;2.77;;;0.67;;
64291;SDS011;50628;51.008;13.658;2023-02-26T00:22:15;3.67;;;1.60;;
64291;SDS011;50628;51.008;13.658;2023-02-26T00:27:17;4.03;;;0.60;;
64291;SDS011;50628;51.008;13.658;2023-02-26T00:32:19;0.97;;;0.60;;
64291;SDS011;50628;51.008;13.658;2023-02-26T00:37:34;0.60;;;0.50;;
64291;SDS011;50628;51.008;13.658;2023-02-26T00:42:59;3.00;;;0.70;;
64291;SDS011;50628;51.008;13.658;2023-02-26T00:48:10;1.03;;;0.60;;
64291;SDS011;50628;51.008;13.658;2023-02-26T00:53:26;2.07;;;0.90;;
64291;SDS011;50628;51.008;13.658;2023-02-26T00:58:32;1.80;;;0.77;;
64291;SDS011;50628;51.008;13.658;2023-02-26T01:03:35;1.10;;;0.70;;
64291;SDS011;50628;51.008;13.658;2023-02-26T01:08:41;0.40;;;0.40;;
64291;SDS011;50628;51.008;13.658;2023-02-26T01:13:48;1.30;;;0.73;;
64291;SDS011;50628;51.008;13.658;2023-02-26T01:18:52;0.70;;;0.60;;
64291;SDS011;50628;51.008;13.658;2023-02-26T01:24:01;1.73;;;0.50;;
64291;SDS011;50628;51.008;13.658;2023-02-26T01:29:09;1.57;;;0.73;;
64291;SDS011;50628;51.008;13.658;2023-02-26T01:34:13;1.40;;;0.60;;
64291;SDS011;50628;51.008;13.658;2023-02-26T01:39:22;0.97;;;0.50;;
64291;SDS011;50628;51.008;13.658;2023-02-26T01:44:30;1.10;;;0.83;;
64291;SDS011;50628;51.008;13.658;2023-02-26T01:49:40;0.87;;;0.70;;
64291;SDS011;50628;51.008;13.658;2023-02-26T01:54:44;1.83;;;0.60;;
64291;SDS011;50628;51.008;13.658;2023-02-26T01:59:46;1.73;;;0.87;;
64291;SDS011;50628;51.008;13.658;2023-02-26T02:04:51;1.10;;;0.73;;
64291;SDS011;50628;51.008;13.658;2023-02-26T02:09:55;3.00;;;1.80;;
64291;SDS011;50628;51.008;13.658;2023-02-26T02:15:01;1.80;;;1.37;;
64291;SDS011;50628;51.008;13.658;2023-02-26T02:20:23;1.17;;;1.17;;
64291;SDS011;50628;51.008;13.658;2023-02-26T02:25:44;2.67;;;0.97;;
64291;SDS011;50628;51.008;13.658;2023-02-26T02:31:05;3.77;;;1.27;;
64291;SDS011;50628;51.008;13.658;2023-02-26T02:36:12;2.03;;;1.63;;
64291;SDS011;50628;51.008;13.658;2023-02-26T02:41:21;3.73;;;1.40;;
64291;SDS011;50628;51.008;13.658;2023-02-26T02:46:29;2.37;;;1.83;;
64291;SDS011;50628;51.008;13.658;2023-02-26T02:51:34;4.43;;;1.47;;
64291;SDS011;50628;51.008;13.658;2023-02-26T02:56:41;1.87;;;1.70;;
64291;SDS011;50628;51.008;13.658;2023-02-26T03:01:47;2.13;;;1.80;;
64291;SDS011;50628;51.008;13.658;2023-02-26T03:06:52;1.60;;;1.50;;
64291;SDS011;50628;51.008;13.658;2023-02-26T03:11:54;1.60;;;1.50;;
64291;SDS011;50628;51.008;13.658;2023-02-26T03:17:04;2.03;;;1.50;;
64291;SDS011;50628;51.008;13.658;2023-02-26T03:22:21;3.17;;;1.70;;
64291;SDS011;50628;51.008;13.658;2023-02-26T03:27:33;2.27;;;1.80;;
64291;SDS011;50628;51.008;13.658;2023-02-26T03:32:42;4.20;;;2.20;;
64291;SDS011;50628;51.008;13.658;2023-02-26T03:37:53;1.90;;;1.80;;
64291;SDS011;50628;51.008;13.658;2023-02-26T03:42:59;1.90;;;1.80;;
64291;SDS011;50628;51.008;13.658;2023-02-26T03:48:06;4.27;;;2.10;;
64291;SDS011;50628;51.008;13.658;2023-02-26T03:53:12;3.93;;;1.97;;
64291;SDS011;50628;51.008;13.658;2023-02-26T03:58:25;2.27;;;2.03;;
64291;SDS011;50628;51.008;13.658;2023-02-26T04:03:46;2.50;;;2.10;;
64291;SDS011;50628;51.008;13.658;2023-02-26T04:08:53;2.17;;;2.07;;
64291;SDS011;50628;51.008;13.658;2023-02-26T04:13:55;1.77;;;1.67;;
64291;SDS011;50628;51.008;13.658;2023-02-26T04:18:58;1.93;;;1.83;;
64291;SDS011;50628;51.008;13.658;2023-02-26T04:24:00;7.67;;;2.60;;
64291;SDS011;50628;51.008;13.658;2023-02-26T04:29:02;2.40;;;2.10;;
64291;SDS011;50628;51.008;13.658;2023-02-26T04:34:06;2.10;;;1.90;;
64291;SDS011;50628;51.008;13.658;2023-02-26T04:39:08;4.17;;;1.93;;
64291;SDS011;50628;51.008;13.658;2023-02-26T04:44:10;4.70;;;1.90;;
64291;SDS011;50628;51.008;13.658;2023-02-26T04:49:16;2.13;;;1.60;;
64291;SDS011;50628;51.008;13.658;2023-02-26T04:54:19;3.90;;;2.20;;
64291;SDS011;50628;51.008;13.658;2023-02-26T04:59:21;3.93;;;1.60;;
64291;SDS011;50628;51.008;13.658;2023-02-26T05:04:25;3.93;;;1.60;;
64291;SDS011;50628;51.008;13.658;2023-02-26T05:09:32;3.70;;;1.90;;
64291;SDS011;50628;51.008;13.658;2023-02-26T05:14:33;2.30;;;1.50;;
64291;SDS011;50628;51.008;13.658;2023-02-26T05:19:37;1.37;;;1.10;;
64291;SDS011;50628;51.008;13.658;2023-02-26T05:24:39;3.77;;;1.27;;
64291;SDS011;50628;51.008;13.658;2023-02-26T05:29:41;1.23;;;1.10;;
64291;SDS011;50628;51.008;13.658;2023-02-26T05:34:47;2.27;;;1.40;;
64291;SDS011;50628;51.008;13.658;2023-02-26T05:39:49;5.10;;;1.30;;
64291;SDS011;50628;51.008;13.658;2023-02-26T05:44:51;6.50;;;2.07;;
64291;SDS011;50628;51.008;13.658;2023-02-26T05:49:54;4.80;;;2.07;;
64291;SDS011;50628;51.008;13.658;2023-02-26T05:54:56;3.60;;;1.70;;
64291;SDS011;50628;51.008;13.658;2023-02-26T05:59:58;4.30;;;2.60;;
64291;SDS011;50628;51.008;13.658;2023-02-26T06:05:01;4.50;;;1.90;;
64291;SDS011;50628;51.008;13.658;2023-02-26T06:10:04;3.03;;;1.87;;
64291;SDS011;50628;51.008;13.658;2023-02-26T06:15:08;3.20;;;1.83;;
64291;SDS011;50628;51.008;13.658;2023-02-26T06:20:12;3.20;;;1.97;;
64291;SDS011;50628;51.008;13.658;2023-02-26T06:25:14;3.50;;;1.60;;
64291;SDS011;50628;51.008;13.658;2023-02-26T06:30:16;3.13;;;1.80;;
64291;SDS011;50628;51.008;13.658;2023-02-26T06:35:19;6.77;;;2.37;;
64291;SDS011;50628;51.008;13.658;2023-02-26T06:40:21;4.93;;;2.23;;
64291;SDS011;50628;51.008;13.658;2023-02-26T06:45:23;3.83;;;1.70;;
64291;SDS011;50628;51.008;13.658;2023-02-26T06:50:26;4.50;;;1.90;;
64291;SDS011;50628;51.008;13.658;2023-02-26T06:55:28;5.07;;;1.60;;
64291;SDS011;50628;51.008;13.658;2023-02-26T07:00:30;2.40;;;1.83;;
64291;SDS011;50628;51.008;13.658;2023-02-26T07:05:33;3.73;;;1.77;;
64291;SDS011;50628;51.008;13.658;2023-02-26T07:10:35;4.47;;;2.33;;
64291;SDS011;50628;51.008;13.658;2023-02-26T07:15:38;6.23;;;2.00;;
64291;SDS011;50628;51.008;13.658;2023-02-26T07:20:41;2.33;;;1.40;;
64291;SDS011;50628;51.008;13.658;2023-02-26T07:25:44;6.00;;;1.73;;
64291;SDS011;50628;51.008;13.658;2023-02-26T07:30:49;2.83;;;1.43;;
64291;SDS011;50628;51.008;13.658;2023-02-26T07:35:52;5.37;;;1.50;;
64291;SDS011;50628;51.008;13.658;2023-02-26T07:40:54;2.13;;;0.97;;
64291;SDS011;50628;51.008;13.658;2023-02-26T07:45:56;4.63;;;1.40;;
64291;SDS011;50628;51.008;13.658;2023-02-26T07:51:00;3.93;;;2.00;;
64291;SDS011;50628;51.008;13.658;2023-02-26T07:56:01;2.07;;;1.33;;
64291;SDS011;50628;51.008;13.658;2023-02-26T08:01:04;6.73;;;2.07;;
64291;SDS011;50628;51.008;13.658;2023-02-26T08:06:07;4.10;;;1.60;;
64291;SDS011;50628;51.008;13.658;2023-02-26T08:11:09;3.30;;;1.47;;
64291;SDS011;50628;51.008;13.658;2023-02-26T08:16:11;5.67;;;1.70;;
64291;SDS011;50628;51.008;13.658;2023-02-26T08:21:14;2.63;;;0.90;;
64291;SDS011;50628;51.008;13.658;2023-02-26T08:26:16;3.13;;;1.03;;
64291;SDS011;50628;51.008;13.658;2023-02-26T08:31:19;2.03;;;1.30;;
64291;SDS011;50628;51.008;13.658;2023-02-26T08:36:22;2.73;;;0.90;;
64291;SDS011;50628;51.008;13.658;2023-02-26T08:41:24;4.17;;;1.30;;
64291;SDS011;50628;51.008;13.658;2023-02-26T08:46:29;3.80;;;1.20;;
64291;SDS011;50628;51.008;13.658;2023-02-26T08:51:32;4.43;;;0.87;;
64291;SDS011;50628;51.008;13.658;2023-02-26T08:56:34;3.63;;;1.07;;
64291;SDS011;50628;51.008;13.658;2023-02-26T09:01:36;8.67;;;3.40;;
64291;SDS011;50628;51.008;13.658;2023-02-26T09:06:39;9.23;;;1.37;;
64291;SDS011;50628;51.008;13.658;2023-02-26T09:11:41;2.50;;;1.10;;
64291;SDS011;50628;51.008;13.658;2023-02-26T09:16:42;9.53;;;0.97;;
64291;SDS011;50628;51.008;13.658;2023-02-26T09:21:46;4.70;;;0.97;;
64291;SDS011;50628;51.008;13.658;2023-02-26T09:26:48;4.53;;;0.80;;
64291;SDS011;50628;51.008;13.658;2023-02-26T09:31:49;5.13;;;1.00;;
64291;SDS011;50628;51.008;13.658;2023-02-26T09:36:53;2.63;;;1.00;;
64291;SDS011;50628;51.008;13.658;2023-02-26T09:41:55;2.17;;;0.90;;
64291;SDS011;50628;51.008;13.658;2023-02-26T09:47:01;4.10;;;1.03;;
64291;SDS011;50628;51.008;13.658;2023-02-26T09:52:11;3.57;;;1.17;;
64291;SDS011;50628;51.008;13.658;2023-02-26T09:57:24;1.83;;;0.90;;
64291;SDS011;50628;51.008;13.658;2023-02-26T10:02:35;3.40;;;1.10;;
64291;SDS011;50628;51.008;13.658;2023-02-26T10:07:44;3.93;;;1.00;;
64291;SDS011;50628;51.008;13.658;2023-02-26T10:12:53;6.10;;;0.83;;
64291;SDS011;50628;51.008;13.658;2023-02-26T10:17:59;3.93;;;0.80;;
64291;SDS011;50628;51.008;13.658;2023-02-26T10:23:18;2.60;;;1.00;;
64291;SDS011;50628;51.008;13.658;2023-02-26T10:28:29;7.73;;;1.43;;
64291;SDS011;50628;51.008;13.658;2023-02-26T10:33:39;3.47;;;1.27;;
64291;SDS011;50628;51.008;13.658;2023-02-26T10:38:51;2.57;;;0.90;;
64291;SDS011;50628;51.008;13.658;2023-02-26T10:44:00;4.07;;;1.00;;
64291;SDS011;50628;51.008;13.658;2023-02-26T10:49:13;2.30;;;0.97;;
64291;SDS011;50628;51.008;13.658;2023-02-26T10:54:30;2.37;;;1.20;;
64291;SDS011;50628;51.008;13.658;2023-02-26T10:59:36;3.53;;;0.87;;
64291;SDS011;50628;51.008;13.658;2023-02-26T11:04:38;4.77;;;0.97;;
64291;SDS011;50628;51.008;13.658;2023-02-26T11:09:42;4.13;;;1.13;;
64291;SDS011;50628;51.008;13.658;2023-02-26T11:14:47;3.60;;;0.60;;
64291;SDS011;50628;51.008;13.658;2023-02-26T11:19:52;4.77;;;0.83;;
64291;SDS011;50628;51.008;13.658;2023-02-26T11:24:58;2.93;;;0.80;;
64291;SDS011;50628;51.008;13.658;2023-02-26T11:30:03;2.33;;;0.57;;
64291;SDS011;50628;51.008;13.658;2023-02-26T11:35:08;2.70;;;0.67;;
64291;SDS011;50628;51.008;13.658;2023-02-26T11:40:14;1.50;;;0.50;;
64291;SDS011;50628;51.008;13.658;2023-02-26T11:45:18;3.00;;;1.13;;
64291;SDS011;50628;51.008;13.658;2023-02-26T11:50:22;3.10;;;0.53;;
64291;SDS011;50628;51.008;13.658;2023-02-26T11:55:28;1.77;;;0.50;;
64291;SDS011;50628;51.008;13.658;2023-02-26T12:00:34;2.47;;;0.63;;
64291;SDS011;50628;51.008;13.658;2023-02-26T12:05:37;2.27;;;0.63;;
64291;SDS011;50628;51.008;13.658;2023-02-26T12:10:42;0.90;;;0.40;;
64291;SDS011;50628;51.008;13.658;2023-02-26T12:15:55;4.37;;;0.73;;
64291;SDS011;50628;51.008;13.658;2023-02-26T12:21:05;2.03;;;0.87;;
64291;SDS011;50628;51.008;13.658;2023-02-26T12:26:21;2.07;;;0.70;;
64291;SDS011;50628;51.008;13.658;2023-02-26T12:31:37;1.90;;;0.60;;
64291;SDS011;50628;51.008;13.658;2023-02-26T12:37:03;1.80;;;0.70;;
64291;SDS011;50628;51.008;13.658;2023-02-26T12:42:20;3.80;;;0.67;;
64291;SDS011;50628;51.008;13.658;2023-02-26T12:47:34;4.13;;;0.57;;
64291;SDS011;50628;51.008;13.658;2023-02-26T12:52:54;3.47;;;0.60;;
64291;SDS011;50628;51.008;13.658;2023-02-26T12:58:19;3.13;;;0.87;;
64291;SDS011;50628;51.008;13.658;2023-02-26T13:09:03;4.13;;;1.57;;
64291;SDS011;50628;51.008;13.658;2023-02-26T13:14:17;3.30;;;0.70;;
64291;SDS011;50628;51.008;13.658;2023-02-26T13:19:32;7.50;;;1.67;;
64291;SDS011;50628;51.008;13.658;2023-02-26T13:24:43;2.77;;;0.80;;
64291;SDS011;50628;51.008;13.658;2023-02-26T13:29:52;4.57;;;0.70;;
64291;SDS011;50628;51.008;13.658;2023-02-26T13:35:16;4.60;;;1.17;;
64291;SDS011;50628;51.008;13.658;2023-02-26T13:40:26;2.90;;;0.87;;
64291;SDS011;50628;51.008;13.658;2023-02-26T13:45:41;5.90;;;2.50;;
64291;SDS011;50628;51.008;13.658;2023-02-26T13:50:53;2.33;;;0.57;;
64291;SDS011;50628;51.008;13.658;2023-02-26T13:56:05;3.97;;;1.33;;
64291;SDS011;50628;51.008;13.658;2023-02-26T14:01:14;2.87;;;1.63;;
64291;SDS011;50628;51.008;13.658;2023-02-26T14:06:23;2.00;;;0.67;;
64291;SDS011;50628;51.008;13.658;2023-02-26T14:11:37;2.33;;;0.80;;
64291;SDS011;50628;51.008;13.658;2023-02-26T14:16:49;1.03;;;0.60;;
64291;SDS011;50628;51.008;13.658;2023-02-26T14:21:54;1.93;;;0.80;;
64291;SDS011;50628;51.008;13.658;2023-02-26T14:27:20;3.37;;;1.60;;
64291;SDS011;50628;51.008;13.658;2023-02-26T14:32:28;3.73;;;0.90;;
64291;SDS011;50628;51.008;13.658;2023-02-26T14:37:32;6.37;;;1.87;;
64291;SDS011;50628;51.008;13.658;2023-02-26T14:42:37;5.63;;;1.20;;
64291;SDS011;50628;51.008;13.658;2023-02-26T14:47:46;3.03;;;0.87;;
64291;SDS011;50628;51.008;13.658;2023-02-26T14:53:07;3.33;;;0.70;;
64291;SDS011;50628;51.008;13.658;2023-02-26T14:58:47;3.87;;;1.23;;
64291;SDS011;50628;51.008;13.658;2023-02-26T15:04:21;2.30;;;0.70;;
64291;SDS011;50628;51.008;13.658;2023-02-26T15:09:49;1.53;;;0.53;;
64291;SDS011;50628;51.008;13.658;2023-02-26T15:15:16;3.13;;;0.90;;
64291;SDS011;50628;51.008;13.658;2023-02-26T15:20:32;2.60;;;1.37;;
64291;SDS011;50628;51.008;13.658;2023-02-26T15:25:43;3.80;;;1.70;;
64291;SDS011;50628;51.008;13.658;2023-02-26T15:30:48;2.40;;;1.20;;
64291;SDS011;50628;51.008;13.658;2023-02-26T15:35:53;3.07;;;1.03;;
64291;SDS011;50628;51.008;13.658;2023-02-26T15:40:57;10.33;;;0.93;;
64291;SDS011;50628;51.008;13.658;2023-02-26T15:46:03;9.30;;;1.10;;
64291;SDS011;50628;51.008;13.658;2023-02-26T15:51:08;2.13;;;1.00;;
64291;SDS011;50628;51.008;13.658;2023-02-26T15:56:14;5.73;;;1.30;;
64291;SDS011;50628;51.008;13.658;2023-02-26T16:01:21;9.33;;;2.57;;
64291;SDS011;50628;51.008;13.658;2023-02-26T16:06:27;11.77;;;3.00;;
64291;SDS011;50628;51.008;13.658;2023-02-26T16:11:32;8.03;;;2.00;;
64291;SDS011;50628;51.008;13.658;2023-02-26T16:16:38;9.27;;;2.30;;
64291;SDS011;50628;51.008;13.658;2023-02-26T16:21:43;7.50;;;2.40;;
64291;SDS011;50628;51.008;13.658;2023-02-26T16:26:48;11.70;;;2.63;;
64291;SDS011;50628;51.008;13.658;2023-02-26T16:31:55;2.33;;;1.20;;
64291;SDS011;50628;51.008;13.658;2023-02-26T16:37:10;3.80;;;1.67;;
64291;SDS011;50628;51.008;13.658;2023-02-26T16:42:21;8.03;;;2.00;;
64291;SDS011;50628;51.008;13.658;2023-02-26T16:47:33;7.83;;;2.20;;
64291;SDS011;50628;51.008;13.658;2023-02-26T16:52:38;6.83;;;2.47;;
64291;SDS011;50628;51.008;13.658;2023-02-26T16:57:40;3.57;;;1.43;;
64291;SDS011;50628;51.008;13.658;2023-02-26T17:02:44;4.73;;;1.70;;
64291;SDS011;50628;51.008;13.658;2023-02-26T17:07:51;5.93;;;3.13;;
64291;SDS011;50628;51.008;13.658;2023-02-26T17:13:01;5.57;;;1.93;;
64291;SDS011;50628;51.008;13.658;2023-02-26T17:18:11;4.00;;;2.07;;
64291;SDS011;50628;51.008;13.658;2023-02-26T17:23:15;8.07;;;3.27;;
64291;SDS011;50628;51.008;13.658;2023-02-26T17:28:19;5.67;;;2.47;;
64291;SDS011;50628;51.008;13.658;2023-02-26T17:33:23;8.53;;;2.13;;
64291;SDS011;50628;51.008;13.658;2023-02-26T17:38:26;6.93;;;3.87;;
64291;SDS011;50628;51.008;13.658;2023-02-26T17:43:28;5.13;;;2.87;;
64291;SDS011;50628;51.008;13.658;2023-02-26T17:48:30;9.30;;;3.43;;
64291;SDS011;50628;51.008;13.658;2023-02-26T17:53:34;3.60;;;1.60;;
64291;SDS011;50628;51.008;13.658;2023-02-26T17:58:40;3.67;;;1.73;;
64291;SDS011;50628;51.008;13.658;2023-02-26T18:03:42;3.90;;;1.40;;
64291;SDS011;50628;51.008;13.658;2023-02-26T18:08:45;3.50;;;1.47;;
64291;SDS011;50628;51.008;13.658;2023-02-26T18:13:47;7.27;;;2.53;;
64291;SDS011;50628;51.008;13.658;2023-02-26T18:18:49;2.00;;;1.07;;
64291;SDS011;50628;51.008;13.658;2023-02-26T18:23:53;3.93;;;1.37;;
64291;SDS011;50628;51.008;13.658;2023-02-26T18:28:56;5.07;;;1.80;;
64291;SDS011;50628;51.008;13.658;2023-02-26T18:33:58;5.70;;;1.93;;
64291;SDS011;50628;51.008;13.658;2023-02-26T18:39:02;5.27;;;1.80;;
64291;SDS011;50628;51.008;13.658;2023-02-26T18:44:06;8.23;;;2.30;;
64291;SDS011;50628;51.008;13.658;2023-02-26T18:49:17;6.13;;;2.70;;
64291;SDS011;50628;51.008;13.658;2023-02-26T18:54:22;5.87;;;2.77;;
64291;SDS011;50628;51.008;13.658;2023-02-26T18:59:24;5.63;;;2.87;;
64291;SDS011;50628;51.008;13.658;2023-02-26T19:04:26;6.33;;;3.70;;
64291;SDS011;50628;51.008;13.658;2023-02-26T19:09:30;3.13;;;2.43;;
64291;SDS011;50628;51.008;13.658;2023-02-26T19:14:32;2.80;;;1.87;;
64291;SDS011;50628;51.008;13.658;2023-02-26T19:19:34;7.30;;;2.70;;
64291;SDS011;50628;51.008;13.658;2023-02-26T19:24:37;4.57;;;2.53;;
64291;SDS011;50628;51.008;13.658;2023-02-26T19:29:40;5.13;;;2.80;;
64291;SDS011;50628;51.008;13.658;2023-02-26T19:34:42;4.13;;;2.37;;
64291;SDS011;50628;51.008;13.658;2023-02-26T19:39:45;5.60;;;2.27;;
64291;SDS011;50628;51.008;13.658;2023-02-26T19:44:47;8.23;;;3.03;;
64291;SDS011;50628;51.008;13.658;2023-02-26T19:49:49;6.33;;;2.73;;
64291;SDS011;50628;51.008;13.658;2023-02-26T19:54:52;4.53;;;2.33;;
64291;SDS011;50628;51.008;13.658;2023-02-26T19:59:54;6.40;;;2.13;;
64291;SDS011;50628;51.008;13.658;2023-02-26T20:04:56;4.53;;;1.67;;
64291;SDS011;50628;51.008;13.658;2023-02-26T20:09:59;5.63;;;2.00;;
64291;SDS011;50628;51.008;13.658;2023-02-26T20:15:01;5.33;;;3.00;;
64291;SDS011;50628;51.008;13.658;2023-02-26T20:20:04;4.47;;;2.20;;
64291;SDS011;50628;51.008;13.658;2023-02-26T20:25:08;3.97;;;1.60;;
64291;SDS011;50628;51.008;13.658;2023-02-26T20:30:10;5.70;;;2.10;;
64291;SDS011;50628;51.008;13.658;2023-02-26T20:35:13;3.07;;;1.17;;
64291;SDS011;50628;51.008;13.658;2023-02-26T20:40:17;3.10;;;1.23;;
64291;SDS011;50628;51.008;13.658;2023-02-26T20:45:19;2.17;;;1.17;;
64291;SDS011;50628;51.008;13.658;2023-02-26T20:50:21;3.93;;;1.20;;
64291;SDS011;50628;51.008;13.658;2023-02-26T20:55:24;2.60;;;1.13;;
64291;SDS011;50628;51.008;13.658;2023-02-26T21:00:26;4.47;;;1.43;;
64291;SDS011;50628;51.008;13.658;2023-02-26T21:05:28;2.40;;;0.90;;
64291;SDS011;50628;51.008;13.658;2023-02-26T21:10:32;2.90;;;0.97;;
64291;SDS011;50628;51.008;13.658;2023-02-26T21:15:34;3.97;;;1.20;;
64291;SDS011;50628;51.008;13.658;2023-02-26T21:20:37;3.03;;;1.17;;
64291;SDS011;50628;51.008;13.658;2023-02-26T21:25:40;5.80;;;2.10;;
64291;SDS011;50628;51.008;13.658;2023-02-26T21:30:42;2.20;;;1.40;;
64291;SDS011;50628;51.008;13.658;2023-02-26T21:35:43;4.77;;;1.43;;
64291;SDS011;50628;51.008;13.658;2023-02-26T21:40:51;6.67;;;1.53;;
64291;SDS011;50628;51.008;13.658;2023-02-26T21:45:53;10.20;;;2.13;;
64291;SDS011;50628;51.008;13.658;2023-02-26T21:50:55;5.03;;;2.40;;
64291;SDS011;50628;51.008;13.658;2023-02-26T21:56:00;3.30;;;1.27;;
64291;SDS011;50628;51.008;13.658;2023-02-26T22:01:02;2.53;;;1.40;;
64291;SDS011;50628;51.008;13.658;2023-02-26T22:06:05;6.80;;;1.10;;
64291;SDS011;50628;51.008;13.658;2023-02-26T22:11:08;4.97;;;1.50;;
64291;SDS011;50628;51.008;13.658;2023-02-26T22:16:10;3.07;;;1.23;;
64291;SDS011;50628;51.008;13.658;2023-02-26T22:21:13;3.33;;;1.20;;
64291;SDS011;50628;51.008;13.658;2023-02-26T22:26:16;2.77;;;1.10;;
64291;SDS011;50628;51.008;13.658;2023-02-26T22:31:18;3.63;;;1.73;;
64291;SDS011;50628;51.008;13.658;2023-02-26T22:36:20;3.53;;;1.40;;
64291;SDS011;50628;51.008;13.658;2023-02-26T22:41:23;6.43;;;1.93;;
64291;SDS011;50628;51.008;13.658;2023-02-26T22:46:25;6.60;;;2.53;;
64291;SDS011;50628;51.008;13.658;2023-02-26T22:51:27;2.77;;;1.50;;
64291;SDS011;50628;51.008;13.658;2023-02-26T22:56:30;4.37;;;1.60;;
64291;SDS011;50628;51.008;13.658;2023-02-26T23:01:32;2.53;;;1.10;;
64291;SDS011;50628;51.008;13.658;2023-02-26T23:06:34;4.77;;;1.60;;
64291;SDS011;50628;51.008;13.658;2023-02-26T23:11:38;3.07;;;1.43;;
64291;SDS011;50628;51.008;13.658;2023-02-26T23:16:40;2.80;;;1.60;;
64291;SDS011;50628;51.008;13.658;2023-02-26T23:21:42;6.30;;;1.53;;
64291;SDS011;50628;51.008;13.658;2023-02-26T23:26:45;4.60;;;2.27;;
64291;SDS011;50628;51.008;13.658;2023-02-26T23:31:47;3.33;;;1.77;;
64291;SDS011;50628;51.008;13.658;2023-02-26T23:36:49;4.40;;;2.30;;
64291;SDS011;50628;51.008;13.658;2023-02-26T23:41:52;7.00;;;3.20;;
64291;SDS011;50628;51.008;13.658;2023-02-26T23:46:54;4.57;;;2.40;;
64291;SDS011;50628;51.008;13.658;2023-02-26T23:51:56;7.43;;;2.30;;
64291;SDS011;50628;51.008;13.658;2023-02-26T23:56:59;4.47;;;2.50;;
